Time;durP1;ratioP1;P1;durP2;ratioP2;P2;SDS_P1;SDS_P2;PMS_P1;PMS_P2;Temp;Humidity;BMP_temperature;BMP_pressure;BME280_temperature;BME280_humidity;BME280_pressure;Samples;Min_cycle;Max_cycle;Signal;HPM_P1;HPM_P2
2022/02/24 00:01:04;;;;;;;4.93;3.30;;;9.60;99.90;;;;;;5073560;28;20631;-68
2022/02/24 00:03:32;;;;;;;6.00;2.83;;;9.60;99.90;;;;;;5072474;28;20258;-69
2022/02/24 00:05:57;;;;;;;8.87;3.20;;;9.60;99.90;;;;;;5073434;28;20202;-69
2022/02/24 00:08:23;;;;;;;5.33;2.80;;;9.50;99.90;;;;;;5073124;28;20417;-67
2022/02/24 00:10:48;;;;;;;3.00;2.63;;;9.40;99.90;;;;;;5073507;28;20261;-69
2022/02/24 00:13:15;;;;;;;5.00;3.50;;;9.40;99.90;;;;;;5072383;28;20405;-67
2022/02/24 00:15:41;;;;;;;4.30;3.67;;;9.30;99.90;;;;;;5073742;28;20207;-68
2022/02/24 00:18:07;;;;;;;4.60;3.17;;;9.30;99.90;;;;;;5081615;28;20440;-67
2022/02/24 00:20:32;;;;;;;6.70;3.73;;;9.30;99.90;;;;;;5093752;28;21028;-68
2022/02/24 00:22:58;;;;;;;4.80;3.20;;;9.40;99.90;;;;;;5093281;28;20681;-68
2022/02/24 00:25:24;;;;;;;4.53;3.00;;;9.30;99.90;;;;;;5093733;28;20656;-68
2022/02/24 00:27:49;;;;;;;6.67;3.67;;;9.30;99.90;;;;;;5093762;28;20181;-68
2022/02/24 00:30:15;;;;;;;6.13;3.40;;;9.30;99.90;;;;;;5093074;28;20292;-68
2022/02/24 00:32:40;;;;;;;5.20;3.20;;;9.30;99.90;;;;;;5092896;28;20753;-69
2022/02/24 00:35:06;;;;;;;5.10;3.40;;;9.20;99.90;;;;;;5091201;28;20198;-68
2022/02/24 00:37:32;;;;;;;4.30;3.10;;;9.20;99.90;;;;;;5091051;28;20182;-68
2022/02/24 00:39:57;;;;;;;6.70;2.97;;;9.30;99.90;;;;;;5073067;28;20565;-69
2022/02/24 00:42:23;;;;;;;6.20;3.17;;;9.20;99.90;;;;;;5073065;28;20229;-69
2022/02/24 00:44:48;;;;;;;9.27;4.17;;;9.20;99.90;;;;;;5073169;28;20271;-70
2022/02/24 00:47:14;;;;;;;4.40;3.20;;;9.20;99.90;;;;;;5073458;28;20194;-67
2022/02/24 00:49:39;;;;;;;8.20;3.60;;;9.20;99.90;;;;;;5072681;28;20186;-68
2022/02/24 00:52:06;;;;;;;6.70;3.10;;;9.20;99.90;;;;;;5073934;28;20183;-69
2022/02/24 00:54:31;;;;;;;5.13;3.23;;;9.20;99.90;;;;;;5093320;28;20545;-68
2022/02/24 00:56:56;;;;;;;5.57;4.03;;;9.20;99.90;;;;;;5093157;28;20419;-68
2022/02/24 00:59:22;;;;;;;7.70;2.73;;;9.20;99.90;;;;;;5092738;28;20244;-68
2022/02/24 01:01:48;;;;;;;6.70;3.10;;;9.30;99.90;;;;;;5092527;28;20182;-68
2022/02/24 01:04:14;;;;;;;4.63;2.60;;;9.30;99.90;;;;;;5074926;28;20202;-69
2022/02/24 01:06:39;;;;;;;4.17;3.07;;;9.30;99.90;;;;;;5093315;28;20476;-68
2022/02/24 01:09:05;;;;;;;3.20;2.53;;;9.40;99.90;;;;;;5089810;28;20442;-68
2022/02/24 01:11:30;;;;;;;5.40;3.13;;;9.30;99.90;;;;;;5073275;28;20201;-69
2022/02/24 01:13:56;;;;;;;3.53;2.57;;;9.30;99.90;;;;;;5072183;28;20182;-68
2022/02/24 01:16:21;;;;;;;5.07;2.77;;;9.30;99.90;;;;;;5072705;28;20678;-68
2022/02/24 01:18:47;;;;;;;4.03;2.70;;;9.30;99.90;;;;;;5072439;28;20184;-69
2022/02/24 01:21:12;;;;;;;3.20;2.60;;;9.30;99.90;;;;;;5072329;28;20225;-69
2022/02/24 01:23:38;;;;;;;5.10;3.13;;;9.30;99.90;;;;;;5072586;28;20209;-68
2022/02/24 01:26:04;;;;;;;5.97;3.37;;;9.40;99.90;;;;;;5078579;28;20208;-69
2022/02/24 01:28:29;;;;;;;8.10;3.20;;;9.40;99.90;;;;;;5075756;28;20178;-69
2022/02/24 01:30:55;;;;;;;4.93;2.83;;;9.40;99.90;;;;;;5093793;28;20185;-69
2022/02/24 01:33:20;;;;;;;5.73;3.33;;;9.30;99.90;;;;;;5092728;28;20539;-69
2022/02/24 01:35:46;;;;;;;6.83;3.23;;;9.40;99.90;;;;;;5092340;28;20202;-69
2022/02/24 01:38:12;;;;;;;4.37;2.93;;;9.40;99.90;;;;;;5092489;28;20178;-68
2022/02/24 01:40:37;;;;;;;8.50;3.20;;;9.40;99.90;;;;;;5074588;28;20642;-69
2022/02/24 01:43:03;;;;;;;7.87;4.27;;;9.30;99.90;;;;;;5088717;28;20224;-68
2022/02/24 01:45:28;;;;;;;4.30;3.03;;;9.30;99.90;;;;;;5075664;28;20256;-69
2022/02/24 01:47:58;;;;;;;4.27;2.67;;;9.40;99.90;;;;;;5076127;28;20181;-67
2022/02/24 01:50:25;;;;;;;4.53;3.00;;;9.40;99.90;;;;;;5075907;28;20173;-69
2022/02/24 01:52:51;;;;;;;8.57;3.70;;;9.40;99.90;;;;;;5075374;28;20423;-69
2022/02/24 01:55:17;;;;;;;3.77;2.93;;;9.40;99.90;;;;;;5075986;28;20523;-68
2022/02/24 01:57:42;;;;;;;4.83;3.07;;;9.40;99.90;;;;;;5076797;28;20439;-68
2022/02/24 02:00:09;;;;;;;5.30;3.17;;;9.40;99.90;;;;;;5077930;28;20206;-69
2022/02/24 02:02:34;;;;;;;6.80;3.37;;;9.30;99.90;;;;;;5076525;28;20175;-68
2022/02/24 02:05:00;;;;;;;3.50;2.87;;;9.40;99.90;;;;;;5076827;28;20659;-68
2022/02/24 02:07:25;;;;;;;6.13;3.30;;;9.30;99.90;;;;;;5076187;28;20183;-68
2022/02/24 02:09:52;;;;;;;6.32;3.30;;;9.30;99.90;;;;;;5076044;28;20421;-68
2022/02/24 02:12:19;;;;;;;5.13;3.20;;;9.30;99.90;;;;;;5075929;28;20253;-68
2022/02/24 02:14:44;;;;;;;4.67;2.60;;;9.30;99.90;;;;;;5076809;28;20439;-69
2022/02/24 02:17:10;;;;;;;10.50;3.20;;;9.30;99.90;;;;;;5082504;28;20423;-68
2022/02/24 02:19:36;;;;;;;5.90;2.80;;;9.30;99.90;;;;;;5096298;28;20213;-68
2022/02/24 02:22:02;;;;;;;6.83;2.77;;;9.20;99.90;;;;;;5077982;28;20598;-68
2022/02/24 02:24:27;;;;;;;4.60;2.77;;;9.30;99.90;;;;;;5096785;28;20442;-68
2022/02/24 02:26:53;;;;;;;4.27;3.03;;;9.30;99.90;;;;;;5095864;28;20212;-68
2022/02/24 02:29:19;;;;;;;9.30;4.03;;;9.30;99.90;;;;;;5096044;28;20188;-69
2022/02/24 02:31:45;;;;;;;9.70;3.40;;;9.40;99.90;;;;;;5077128;28;20177;-68
2022/02/24 02:34:13;;;;;;;4.87;2.83;;;9.40;99.90;;;;;;5089096;28;20424;-68
2022/02/24 02:36:41;;;;;;;5.70;2.43;;;9.40;99.90;;;;;;5075643;28;20173;-68
2022/02/24 02:39:11;;;;;;;3.80;3.27;;;9.40;99.90;;;;;;5090493;28;20427;-68
2022/02/24 02:41:39;;;;;;;3.57;2.70;;;9.30;99.90;;;;;;5095370;28;20401;-68
2022/02/24 02:44:06;;;;;;;6.63;3.10;;;9.40;99.90;;;;;;5095884;28;20400;-68
2022/02/24 02:46:31;;;;;;;6.03;3.20;;;9.40;99.90;;;;;;5096317;28;20408;-69
2022/02/24 02:48:57;;;;;;;3.70;2.57;;;9.30;99.90;;;;;;5099250;28;20400;-69
2022/02/24 02:51:22;;;;;;;4.10;2.83;;;9.30;99.90;;;;;;5101050;28;20189;-69
2022/02/24 02:53:48;;;;;;;3.10;2.53;;;9.30;99.90;;;;;;5080198;28;20652;-69
2022/02/24 02:56:14;;;;;;;6.37;4.10;;;9.30;99.90;;;;;;5076864;28;20236;-68
2022/02/24 02:58:39;;;;;;;3.40;2.40;;;9.30;99.90;;;;;;5097205;28;20177;-69
2022/02/24 03:01:05;;;;;;;3.33;2.70;;;9.40;99.90;;;;;;5096340;28;20210;-69
2022/02/24 03:03:31;;;;;;;6.30;2.60;;;9.40;99.90;;;;;;5090875;28;20190;-68
2022/02/24 03:05:57;;;;;;;2.70;2.37;;;9.40;99.90;;;;;;5075579;28;20207;-68
2022/02/24 03:08:23;;;;;;;4.70;3.00;;;9.40;99.90;;;;;;5075788;28;20807;-68
2022/02/24 03:10:50;;;;;;;3.43;3.10;;;9.40;99.90;;;;;;5076267;28;20416;-68
2022/02/24 03:13:16;;;;;;;4.07;3.67;;;9.40;99.90;;;;;;5075099;28;20404;-68
2022/02/24 03:15:42;;;;;;;7.00;2.90;;;9.30;99.90;;;;;;5075214;28;20456;-69
2022/02/24 03:18:09;;;;;;;5.93;2.90;;;9.30;99.90;;;;;;5083374;28;20189;-70
2022/02/24 03:20:34;;;;;;;4.50;2.80;;;9.30;99.90;;;;;;5102172;28;20458;-70
2022/02/24 03:23:01;;;;;;;5.23;3.23;;;9.40;99.90;;;;;;5100534;28;20488;-68
2022/02/24 03:25:28;;;;;;;4.33;2.87;;;9.40;99.90;;;;;;5102394;28;20192;-68
2022/02/24 03:27:54;;;;;;;5.17;3.03;;;9.30;99.90;;;;;;5106163;28;20461;-70
2022/02/24 03:30:20;;;;;;;7.33;3.27;;;9.30;99.90;;;;;;5106250;28;20427;-71
2022/02/24 03:32:46;;;;;;;4.70;2.60;;;9.30;99.90;;;;;;5102489;28;20907;-68
2022/02/24 03:35:12;;;;;;;2.90;2.50;;;9.30;99.90;;;;;;5100554;28;20453;-68
2022/02/24 03:37:38;;;;;;;5.20;2.73;;;9.30;99.90;;;;;;5095312;28;20193;-68
2022/02/24 03:40:07;;;;;;;4.90;3.30;;;9.30;99.90;;;;;;5095829;28;20451;-68
2022/02/24 03:42:33;;;;;;;6.63;2.60;;;9.20;99.90;;;;;;5102955;28;20590;-68
2022/02/24 03:44:59;;;;;;;4.53;2.80;;;9.20;99.90;;;;;;5118238;22;20495;-70
2022/02/24 03:47:25;;;;;;;4.77;2.70;;;9.20;99.90;;;;;;5025481;28;20429;-68
2022/02/24 03:49:51;;;;;;;3.57;2.83;;;9.30;99.90;;;;;;5032436;28;20411;-68
2022/02/24 03:52:18;;;;;;;5.77;2.60;;;9.30;99.90;;;;;;5054570;28;20182;-69
2022/02/24 03:54:44;;;;;;;4.40;3.20;;;9.30;99.90;;;;;;5072286;28;20405;-70
2022/02/24 03:57:10;;;;;;;3.50;2.90;;;9.30;99.90;;;;;;5072051;28;20420;-69
2022/02/24 03:59:37;;;;;;;3.30;2.67;;;9.40;99.90;;;;;;5072021;28;20464;-70
2022/02/24 04:02:04;;;;;;;5.60;2.57;;;9.40;99.90;;;;;;5071726;28;20408;-68
2022/02/24 04:04:30;;;;;;;8.70;3.13;;;9.30;99.90;;;;;;5071704;28;20451;-68
2022/02/24 04:06:55;;;;;;;4.23;2.40;;;9.30;99.90;;;;;;5070690;28;20523;-68
2022/02/24 04:09:21;;;;;;;4.57;2.87;;;9.30;99.90;;;;;;5069860;28;20425;-68
2022/02/24 04:11:46;;;;;;;6.47;3.53;;;9.30;99.90;;;;;;5071427;28;20671;-69
2022/02/24 04:14:12;;;;;;;7.10;4.00;;;9.30;99.90;;;;;;5071668;28;20728;-69
2022/02/24 04:16:37;;;;;;;6.47;3.10;;;9.30;99.90;;;;;;5071573;28;20557;-68
2022/02/24 04:19:03;;;;;;;5.67;3.13;;;9.30;99.90;;;;;;5071633;28;20175;-70
2022/02/24 04:21:29;;;;;;;6.03;2.70;;;9.30;99.90;;;;;;5071665;28;20205;-69
2022/02/24 04:23:55;;;;;;;5.90;3.10;;;9.30;99.90;;;;;;5052949;28;20431;-69
2022/02/24 04:26:20;;;;;;;5.13;2.43;;;9.30;99.90;;;;;;5056541;28;20214;-69
2022/02/24 04:28:45;;;;;;;6.13;3.23;;;9.30;99.90;;;;;;5051602;28;20179;-68
2022/02/24 04:31:11;;;;;;;4.90;3.00;;;9.40;99.90;;;;;;5033574;28;20188;-69
2022/02/24 04:33:37;;;;;;;6.50;3.37;;;9.30;99.90;;;;;;5051379;28;20652;-69
2022/02/24 04:36:02;;;;;;;6.20;3.30;;;9.30;99.90;;;;;;5051511;28;20201;-69
2022/02/24 04:38:28;;;;;;;11.47;3.53;;;9.20;99.90;;;;;;5051073;28;20188;-69
2022/02/24 04:40:54;;;;;;;5.03;3.10;;;9.20;99.90;;;;;;5050468;28;20571;-70
2022/02/24 04:43:19;;;;;;;6.00;2.93;;;9.20;99.90;;;;;;5050916;28;20187;-70
2022/02/24 04:45:45;;;;;;;5.57;3.40;;;9.30;99.90;;;;;;5051161;28;20214;-69
2022/02/24 04:48:12;;;;;;;7.17;2.70;;;9.30;99.90;;;;;;5051401;28;20537;-68
2022/02/24 04:50:38;;;;;;;9.77;3.80;;;9.30;99.90;;;;;;5051504;28;20702;-69
2022/02/24 04:53:03;;;;;;;11.70;5.57;;;9.30;99.90;;;;;;5052320;28;20447;-68
2022/02/24 04:55:29;;;;;;;12.63;7.10;;;9.30;99.90;;;;;;5051238;28;20437;-69
2022/02/24 04:57:54;;;;;;;9.70;3.27;;;9.30;99.90;;;;;;5051380;28;20178;-69
2022/02/24 05:00:20;;;;;;;3.60;2.40;;;9.30;99.90;;;;;;5051514;28;20210;-69
2022/02/24 05:02:45;;;;;;;3.57;2.63;;;9.30;99.90;;;;;;5051153;28;20171;-70
2022/02/24 05:05:11;;;;;;;5.10;2.80;;;9.30;99.90;;;;;;5050618;28;20605;-69
2022/02/24 05:07:36;;;;;;;5.70;2.70;;;9.30;99.90;;;;;;5051046;28;20189;-69
2022/02/24 05:10:03;;;;;;;3.30;2.60;;;9.30;99.90;;;;;;5051212;28;20178;-69
2022/02/24 05:12:28;;;;;;;8.13;2.83;;;9.30;99.90;;;;;;5050919;28;20190;-69
2022/02/24 05:14:54;;;;;;;5.47;2.60;;;9.20;99.90;;;;;;5052068;28;20460;-69
2022/02/24 05:17:19;;;;;;;3.60;2.67;;;9.20;99.90;;;;;;5052458;28;20583;-68
2022/02/24 05:19:45;;;;;;;4.60;3.23;;;9.20;99.90;;;;;;5054880;28;20194;-69
2022/02/24 05:22:10;;;;;;;6.07;2.70;;;9.30;99.90;;;;;;5054754;28;20253;-70
2022/02/24 05:24:36;;;;;;;3.20;2.10;;;9.30;99.90;;;;;;5055763;28;20175;-69
2022/02/24 05:27:01;;;;;;;15.80;3.27;;;9.20;99.90;;;;;;5055018;28;20713;-69
2022/02/24 05:29:27;;;;;;;8.53;3.20;;;9.20;99.90;;;;;;5054996;28;20591;-70
2022/02/24 05:31:52;;;;;;;5.70;2.70;;;9.10;99.90;;;;;;5054593;28;20171;-69
2022/02/24 05:34:18;;;;;;;2.97;2.47;;;9.00;99.90;;;;;;5054542;28;20183;-69
2022/02/24 05:36:44;;;;;;;5.57;2.83;;;9.10;99.90;;;;;;5055792;28;20206;-70
2022/02/24 05:39:10;;;;;;;6.33;3.37;;;9.10;99.90;;;;;;5055426;28;20199;-69
2022/02/24 05:41:36;;;;;;;5.57;2.60;;;9.20;99.90;;;;;;5054285;28;20207;-68
2022/02/24 05:44:02;;;;;;;3.97;2.57;;;9.20;99.90;;;;;;5054390;28;20430;-69
2022/02/24 05:46:27;;;;;;;7.40;3.00;;;9.20;99.90;;;;;;5054086;28;20465;-69
2022/02/24 05:48:53;;;;;;;4.47;2.80;;;9.20;99.90;;;;;;5054382;28;20427;-69
2022/02/24 05:51:18;;;;;;;3.87;2.37;;;9.20;99.90;;;;;;5054312;28;20178;-69
2022/02/24 05:53:44;;;;;;;3.70;2.90;;;9.20;99.90;;;;;;5054047;28;20721;-70
2022/02/24 05:56:09;;;;;;;3.67;3.00;;;9.20;99.90;;;;;;5036342;28;20202;-70
2022/02/24 05:58:35;;;;;;;6.27;2.80;;;9.20;99.90;;;;;;5072584;28;20669;-69
2022/02/24 06:01:00;;;;;;;4.20;2.70;;;9.20;99.90;;;;;;5074233;28;20264;-70
2022/02/24 06:03:26;;;;;;;6.93;3.10;;;9.20;99.90;;;;;;5073989;28;20180;-70
2022/02/24 06:05:53;;;;;;;5.30;2.80;;;9.20;99.90;;;;;;5055745;28;20206;-70
2022/02/24 06:08:19;;;;;;;5.33;2.70;;;9.20;99.90;;;;;;5072349;28;20186;-69
2022/02/24 06:10:45;;;;;;;5.90;2.73;;;9.20;99.90;;;;;;5074290;28;20961;-69
2022/02/24 06:13:10;;;;;;;5.33;2.80;;;9.20;99.90;;;;;;5073725;28;20499;-70
2022/02/24 06:15:36;;;;;;;4.23;2.90;;;9.20;99.90;;;;;;5074048;28;20728;-70
2022/02/24 06:18:06;;;;;;;8.53;2.73;;;9.20;99.90;;;;;;5071770;28;20189;-68
2022/02/24 06:20:32;;;;;;;8.03;2.73;;;9.20;99.90;;;;;;5073290;28;20202;-68
2022/02/24 06:22:57;;;;;;;4.70;2.60;;;9.30;99.90;;;;;;5073387;28;20425;-68
2022/02/24 06:25:23;;;;;;;6.43;3.10;;;9.20;99.90;;;;;;5073482;28;20194;-68
2022/02/24 06:27:48;;;;;;;5.40;2.93;;;9.20;99.90;;;;;;5073291;28;20273;-69
2022/02/24 06:30:14;;;;;;;5.93;2.70;;;9.30;99.90;;;;;;5070752;28;20193;-69
2022/02/24 06:32:41;;;;;;;4.43;2.67;;;9.40;99.90;;;;;;5073271;28;20587;-70
2022/02/24 06:35:10;;;;;;;6.00;2.60;;;9.30;99.90;;;;;;5073643;28;20280;-69
2022/02/24 06:37:39;;;;;;;10.13;3.53;;;9.30;99.90;;;;;;5073393;28;20424;-69
2022/02/24 06:40:06;;;;;;;7.93;2.90;;;9.30;99.90;;;;;;5057150;28;20492;-69
2022/02/24 06:42:31;;;;;;;5.40;2.60;;;9.30;99.90;;;;;;5038766;28;20464;-69
2022/02/24 06:44:57;;;;;;;6.03;4.50;;;9.30;99.90;;;;;;5033839;28;20565;-69
2022/02/24 06:47:22;;;;;;;4.30;2.70;;;9.30;99.90;;;;;;5033991;28;20252;-69
2022/02/24 06:49:48;;;;;;;7.50;2.30;;;9.30;99.90;;;;;;5052125;28;20206;-69
2022/02/24 06:52:14;;;;;;;3.60;2.63;;;9.30;99.90;;;;;;5051875;28;20249;-69
2022/02/24 06:54:39;;;;;;;3.73;2.60;;;9.30;99.90;;;;;;5051132;28;21076;-70
2022/02/24 06:57:06;;;;;;;4.57;3.00;;;9.30;99.90;;;;;;5050734;28;20190;-69
2022/02/24 06:59:34;;;;;;;7.03;4.03;;;9.30;99.90;;;;;;5050208;28;20562;-68
2022/02/24 07:01:59;;;;;;;4.03;2.90;;;9.40;99.90;;;;;;5051738;28;20544;-69
2022/02/24 07:04:25;;;;;;;4.77;2.20;;;9.50;99.90;;;;;;5050713;28;20460;-69
2022/02/24 07:06:51;;;;;;;5.07;3.07;;;9.50;99.90;;;;;;5050295;28;20466;-70
2022/02/24 07:09:16;;;;;;;6.10;2.87;;;9.50;99.90;;;;;;5050871;28;20263;-70
2022/02/24 07:11:42;;;;;;;6.10;2.83;;;9.50;99.90;;;;;;5032718;28;20202;-69
2022/02/24 07:14:07;;;;;;;6.87;2.73;;;9.50;99.90;;;;;;5050868;28;20309;-68
2022/02/24 07:16:35;;;;;;;4.67;3.00;;;9.50;99.90;;;;;;5050661;28;20532;-69
2022/02/24 07:19:02;;;;;;;6.93;2.97;;;9.30;99.90;;;;;;5033090;28;20205;-69
2022/02/24 07:21:27;;;;;;;5.40;2.87;;;9.30;99.90;;;;;;5050287;28;20485;-69
2022/02/24 07:23:53;;;;;;;6.93;2.93;;;9.30;99.90;;;;;;5050483;28;20442;-69
2022/02/24 07:26:19;;;;;;;5.00;2.77;;;9.40;99.90;;;;;;5050666;28;20230;-69
2022/02/24 07:28:45;;;;;;;4.07;2.43;;;9.50;99.90;;;;;;5052447;28;20199;-69
2022/02/24 07:31:12;;;;;;;4.73;2.63;;;9.40;99.90;;;;;;5065542;28;20357;-69
2022/02/24 07:33:38;;;;;;;5.07;2.80;;;9.40;99.90;;;;;;5050349;28;20457;-68
2022/02/24 07:36:04;;;;;;;5.57;3.00;;;9.50;99.90;;;;;;5050536;28;20462;-69
2022/02/24 07:38:30;;;;;;;4.67;2.97;;;9.50;99.90;;;;;;5050954;28;20211;-69
2022/02/24 07:40:55;;;;;;;8.20;2.70;;;9.50;99.90;;;;;;5051169;28;20473;-70
2022/02/24 07:43:21;;;;;;;4.27;2.60;;;9.50;99.90;;;;;;5050479;28;20785;-68
2022/02/24 07:45:46;;;;;;;8.20;3.20;;;9.50;99.90;;;;;;5050345;28;20340;-69
2022/02/24 07:48:12;;;;;;;4.90;3.10;;;9.60;99.90;;;;;;5050599;28;20336;-69
2022/02/24 07:50:37;;;;;;;4.50;2.70;;;9.60;99.90;;;;;;5051297;28;20204;-69
2022/02/24 07:53:03;;;;;;;4.60;3.03;;;9.70;99.90;;;;;;5050201;28;20290;-69
2022/02/24 07:55:29;;;;;;;4.27;2.73;;;9.80;99.90;;;;;;5049512;28;20210;-69
2022/02/24 07:57:55;;;;;;;3.63;3.17;;;9.70;99.90;;;;;;5050031;28;20219;-69
2022/02/24 08:00:21;;;;;;;3.63;2.53;;;9.70;99.90;;;;;;5050369;28;20473;-69
2022/02/24 08:02:47;;;;;;;3.97;3.40;;;9.80;99.90;;;;;;5069260;28;20548;-70
2022/02/24 08:05:13;;;;;;;6.93;3.07;;;9.80;99.90;;;;;;5067421;28;20737;-70
2022/02/24 08:07:39;;;;;;;5.87;2.60;;;9.80;99.90;;;;;;5050741;28;20476;-70
2022/02/24 08:10:06;;;;;;;3.83;2.73;;;9.80;99.90;;;;;;5051042;28;20632;-69
2022/02/24 08:12:44;;;;;;;8.00;2.87;;;9.80;99.90;;;;;;5051766;28;20458;-71
2022/02/24 08:15:16;;;;;;;3.90;2.70;;;9.80;99.90;;;;;;5051004;28;20434;-69
2022/02/24 08:17:43;;;;;;;4.63;3.27;;;9.80;99.90;;;;;;5050640;28;20451;-70
2022/02/24 08:20:09;;;;;;;4.93;2.73;;;9.80;99.90;;;;;;5052096;28;20541;-69
2022/02/24 08:22:37;;;;;;;4.97;2.57;;;9.80;99.90;;;;;;5049029;28;20503;-69
2022/02/24 08:25:04;;;;;;;4.60;2.60;;;9.70;99.90;;;;;;5049297;28;20441;-69
2022/02/24 08:27:30;;;;;;;3.90;2.53;;;9.70;99.90;;;;;;5049688;28;20812;-70
2022/02/24 08:29:57;;;;;;;3.90;2.57;;;9.70;99.90;;;;;;5050367;28;20525;-69
2022/02/24 08:32:24;;;;;;;6.00;3.10;;;9.70;99.90;;;;;;5031057;28;20566;-68
2022/02/24 08:34:50;;;;;;;5.70;2.30;;;9.70;99.90;;;;;;5070611;28;20441;-70
2022/02/24 08:37:16;;;;;;;5.90;2.90;;;9.70;99.90;;;;;;5069747;28;20476;-70
2022/02/24 08:39:41;;;;;;;3.70;2.83;;;9.70;99.90;;;;;;5049489;28;20496;-69
2022/02/24 08:42:07;;;;;;;3.67;2.93;;;9.70;99.90;;;;;;5070112;28;20437;-70
2022/02/24 08:44:32;;;;;;;6.23;3.57;;;9.80;99.90;;;;;;5069595;28;20218;-69
2022/02/24 08:46:58;;;;;;;10.63;3.90;;;9.80;99.90;;;;;;5058369;28;20254;-69
2022/02/24 08:49:23;;;;;;;4.20;2.70;;;9.80;99.90;;;;;;5051515;28;20218;-70
2022/02/24 08:51:49;;;;;;;6.10;3.13;;;9.80;99.90;;;;;;5033260;28;20176;-70
2022/02/24 08:54:14;;;;;;;5.63;3.30;;;9.90;99.90;;;;;;5055052;28;20179;-70
2022/02/24 08:56:41;;;;;;;7.17;3.03;;;9.90;99.90;;;;;;5036929;28;20221;-70
2022/02/24 08:59:07;;;;;;;7.97;3.43;;;9.90;99.90;;;;;;5054513;28;20191;-69
2022/02/24 09:01:33;;;;;;;4.53;2.83;;;9.90;99.90;;;;;;5054634;28;20474;-69
2022/02/24 09:03:58;;;;;;;3.23;2.90;;;9.80;99.90;;;;;;5054550;28;20592;-70
2022/02/24 09:06:24;;;;;;;5.23;2.83;;;9.80;99.90;;;;;;5054685;28;20203;-70
2022/02/24 09:08:49;;;;;;;4.10;2.70;;;9.80;99.90;;;;;;5054523;28;20175;-70
2022/02/24 09:11:17;;;;;;;5.30;3.10;;;9.70;99.90;;;;;;5070944;28;20273;-69
2022/02/24 09:13:43;;;;;;;4.80;2.40;;;9.70;99.90;;;;;;5073913;28;20182;-70
2022/02/24 09:16:09;;;;;;;3.67;2.60;;;9.60;99.90;;;;;;5074659;28;20436;-70
2022/02/24 09:18:35;;;;;;;3.57;2.10;;;9.60;99.90;;;;;;5074821;28;20427;-70
2022/02/24 09:21:01;;;;;;;5.20;2.73;;;9.60;99.90;;;;;;5072727;28;20247;-70
2022/02/24 09:23:26;;;;;;;5.10;2.43;;;9.60;99.90;;;;;;5074153;28;20462;-69
2022/02/24 09:25:52;;;;;;;4.33;2.67;;;9.50;99.90;;;;;;5074421;28;20932;-69
2022/02/24 09:28:18;;;;;;;4.63;3.00;;;9.40;99.90;;;;;;5074523;28;20186;-70
2022/02/24 09:30:44;;;;;;;3.83;2.80;;;9.40;99.90;;;;;;5073005;28;20264;-69
2022/02/24 09:33:10;;;;;;;8.33;2.53;;;9.40;99.90;;;;;;5074332;28;20206;-69
2022/02/24 09:35:35;;;;;;;9.10;2.93;;;9.30;99.90;;;;;;5074126;28;20206;-69
2022/02/24 09:38:01;;;;;;;6.63;3.00;;;9.20;99.90;;;;;;5074246;28;20423;-70
2022/02/24 09:40:30;;;;;;;7.80;4.43;;;9.20;99.90;;;;;;5074112;28;20718;-70
2022/02/24 09:42:55;;;;;;;4.77;2.90;;;9.30;99.90;;;;;;5072583;28;20191;-70
2022/02/24 09:45:21;;;;;;;6.07;2.70;;;9.20;99.90;;;;;;5073848;28;20464;-70
2022/02/24 09:47:48;;;;;;;4.33;3.03;;;9.30;99.90;;;;;;5073919;28;20188;-70
2022/02/24 09:50:15;;;;;;;7.67;2.73;;;9.30;99.90;;;;;;5074067;28;20179;-70
2022/02/24 09:52:40;;;;;;;5.60;2.80;;;9.30;99.90;;;;;;5072230;28;20439;-69
2022/02/24 09:55:06;;;;;;;6.37;3.13;;;9.40;99.90;;;;;;5073690;28;20448;-69
2022/02/24 09:57:32;;;;;;;6.13;3.23;;;9.50;99.90;;;;;;5074027;28;20270;-68
2022/02/24 09:59:57;;;;;;;7.33;3.20;;;9.50;99.90;;;;;;5073880;28;20568;-69
2022/02/24 10:02:24;;;;;;;6.67;3.17;;;9.50;99.90;;;;;;5072918;28;20187;-71
2022/02/24 10:05:03;;;;;;;6.80;2.87;;;9.60;99.90;;;;;;5071200;28;20190;-69
2022/02/24 10:07:29;;;;;;;5.87;3.13;;;9.50;99.90;;;;;;5054053;28;20468;-69
2022/02/24 10:09:55;;;;;;;4.33;3.10;;;9.50;99.90;;;;;;5053531;28;20424;-69
2022/02/24 10:12:20;;;;;;;6.73;3.10;;;9.50;99.90;;;;;;5053319;28;20187;-70
2022/02/24 10:14:46;;;;;;;3.23;2.90;;;9.40;99.90;;;;;;5054715;28;20247;-69
2022/02/24 10:17:15;;;;;;;7.20;4.05;;;9.50;99.90;;;;;;5053290;28;20492;-69
2022/02/24 10:19:46;;;;;;;5.43;3.10;;;9.50;99.90;;;;;;5053464;28;20188;-69
2022/02/24 10:22:19;;;;;;;6.10;3.30;;;9.50;99.90;;;;;;5053273;28;20417;-69
2022/02/24 10:24:53;;;;;;;4.77;3.70;;;9.50;99.90;;;;;;5053158;28;20516;-69
2022/02/24 10:27:23;;;;;;;6.33;3.97;;;9.50;99.90;;;;;;5053303;28;20417;-71
2022/02/24 10:30:09;;;;;;;6.70;4.03;;;9.60;99.90;;;;;;5054127;28;20431;-70
2022/02/24 10:32:34;;;;;;;6.90;3.60;;;9.60;99.90;;;;;;5053361;28;20479;-71
2022/02/24 10:35:29;;;;;;;4.50;2.47;;;9.60;99.90;;;;;;5054044;28;20446;-70
2022/02/24 10:38:03;;;;;;;7.17;2.97;;;9.50;99.90;;;;;;5057915;28;20190;-70
2022/02/24 10:40:33;;;;;;;6.50;4.43;;;9.50;99.90;;;;;;5072899;28;20461;-70
2022/02/24 10:43:19;;;;;;;4.10;2.40;;;9.40;99.90;;;;;;5054541;28;20417;-70
2022/02/24 10:46:01;;;;;;;7.23;2.83;;;9.40;99.90;;;;;;5072789;28;20542;-69
2022/02/24 10:48:29;;;;;;;4.57;3.07;;;9.50;99.90;;;;;;5071362;28;20416;-70
2022/02/24 10:50:57;;;;;;;4.67;3.20;;;9.60;99.90;;;;;;5072829;28;20406;-70
2022/02/24 10:53:26;;;;;;;5.03;2.97;;;9.50;99.90;;;;;;5072494;28;20413;-70
2022/02/24 10:56:08;;;;;;;7.60;3.63;;;9.60;99.90;;;;;;5072792;28;20434;-70
2022/02/24 10:58:39;;;;;;;5.10;4.00;;;9.60;99.90;;;;;;5071268;28;20410;-71
2022/02/24 11:01:08;;;;;;;13.57;4.80;;;9.70;99.90;;;;;;5032417;28;20462;-69
2022/02/24 11:03:34;;;;;;;11.50;4.27;;;9.60;99.90;;;;;;5032496;28;20419;-70
2022/02/24 11:06:04;;;;;;;10.57;4.00;;;9.70;99.90;;;;;;5043380;28;20533;-70
2022/02/24 11:08:30;;;;;;;7.87;4.20;;;9.60;99.90;;;;;;5052182;28;20402;-70
2022/02/24 11:10:57;;;;;;;11.33;4.70;;;9.70;99.90;;;;;;5066348;28;20492;-70
2022/02/24 11:13:23;;;;;;;8.07;3.97;;;9.80;99.90;;;;;;5073159;28;20478;-71
2022/02/24 11:15:49;;;;;;;8.03;4.27;;;9.80;99.90;;;;;;5071702;28;20452;-70
2022/02/24 11:18:17;;;;;;;8.97;4.97;;;9.90;99.90;;;;;;5072396;28;20416;-70
2022/02/24 11:20:43;;;;;;;8.77;4.40;;;10.00;99.90;;;;;;5070169;28;20502;-70
2022/02/24 11:23:08;;;;;;;7.53;4.67;;;10.10;99.90;;;;;;5071689;28;20448;-70
2022/02/24 11:25:48;;;;;;;6.17;4.40;;;10.30;99.90;;;;;;5072127;28;20438;-72
2022/02/24 11:28:17;;;;;;;5.47;4.27;;;10.40;99.90;;;;;;5071591;28;20159;-70
2022/02/24 11:30:47;;;;;;;8.10;4.30;;;10.40;99.90;;;;;;5071240;28;20441;-69
2022/02/24 11:33:17;;;;;;;6.50;3.90;;;10.40;99.90;;;;;;5070840;28;20456;-68
2022/02/24 11:35:42;;;;;;;5.27;4.00;;;10.40;99.90;;;;;;5037371;28;20976;-69
2022/02/24 11:38:10;;;;;;;5.67;3.97;;;10.40;99.90;;;;;;5071405;28;20412;-69
2022/02/24 11:40:37;;;;;;;8.57;4.33;;;10.40;99.90;;;;;;5072468;28;20195;-69
2022/02/24 11:43:07;;;;;;;6.20;4.10;;;10.30;99.90;;;;;;5073244;28;20525;-69
2022/02/24 11:45:38;;;;;;;4.53;3.90;;;10.30;99.90;;;;;;5058744;28;20470;-69
2022/02/24 11:48:12;;;;;;;6.80;4.10;;;10.20;99.90;;;;;;5031326;28;21211;-70
2022/02/24 11:50:53;;;;;;;5.30;3.30;;;10.00;99.90;;;;;;5031170;28;20437;-69
2022/02/24 11:53:36;;;;;;;5.43;3.40;;;10.10;99.90;;;;;;5025780;28;20474;-69
2022/02/24 11:56:18;;;;;;;6.73;3.50;;;10.00;99.90;;;;;;5051153;28;20458;-68
2022/02/24 11:58:51;;;;;;;5.50;3.07;;;10.00;99.90;;;;;;5050299;28;20442;-70
2022/02/24 12:01:43;;;;;;;6.77;3.20;;;9.90;99.90;;;;;;5052788;28;20571;-69
2022/02/24 12:04:14;;;;;;;7.30;4.90;;;10.00;99.90;;;;;;5052068;28;20462;-67
2022/02/24 12:06:57;;;;;;;4.70;3.47;;;10.00;99.90;;;;;;5032772;28;20478;-68
2022/02/24 12:09:27;;;;;;;4.87;3.33;;;10.00;99.90;;;;;;5050643;28;20471;-68
2022/02/24 12:12:03;;;;;;;5.50;3.30;;;10.00;99.90;;;;;;5033418;28;20531;-70
2022/02/24 12:14:31;;;;;;;3.20;2.63;;;10.10;99.90;;;;;;5050183;28;20456;-69
2022/02/24 12:17:06;;;;;;;5.47;3.87;;;10.00;99.90;;;;;;5049810;28;20450;-69
2022/02/24 12:19:36;;;;;;;7.10;3.70;;;10.00;99.90;;;;;;5048431;28;20536;-69
2022/02/24 12:22:14;;;;;;;4.60;3.50;;;10.00;99.90;;;;;;5051691;28;20887;-69
2022/02/24 12:25:04;;;;;;;6.77;3.43;;;10.10;99.90;;;;;;5051018;28;20417;-69
2022/02/24 12:27:40;;;;;;;3.73;3.33;;;10.30;99.90;;;;;;5031969;28;21033;-69
2022/02/24 12:30:11;;;;;;;6.20;4.00;;;10.40;99.90;;;;;;5050585;28;20786;-69
2022/02/24 12:32:49;;;;;;;5.20;4.27;;;10.40;99.90;;;;;;5051127;28;20942;-69
2022/02/24 12:35:17;;;;;;;5.03;4.00;;;10.50;99.90;;;;;;5051046;28;20453;-69
2022/02/24 12:37:45;;;;;;;6.10;3.30;;;10.50;99.90;;;;;;5054315;28;20512;-70
2022/02/24 12:40:17;;;;;;;3.80;3.50;;;10.50;99.90;;;;;;5070900;28;20465;-70
2022/02/24 12:42:42;;;;;;;4.50;3.53;;;10.60;99.90;;;;;;5071114;28;20410;-69
2022/02/24 12:45:08;;;;;;;9.23;4.37;;;10.60;99.90;;;;;;5070756;28;20536;-69
2022/02/24 12:47:34;;;;;;;4.80;4.00;;;10.60;99.90;;;;;;5053184;28;20175;-69
2022/02/24 12:50:00;;;;;;;4.43;3.97;;;10.50;99.90;;;;;;5068986;28;20289;-69
2022/02/24 12:52:28;;;;;;;5.13;3.70;;;10.60;99.90;;;;;;5070642;28;20512;-69
2022/02/24 12:54:53;;;;;;;6.67;4.03;;;10.60;99.90;;;;;;5071012;28;20194;-69